Time;durP1;ratioP1;P1;durP2;ratioP2;P2;SDS_P1;SDS_P2;PMS_P1;PMS_P2;Temp;Humidity;BMP_temperature;BMP_pressure;BME280_temperature;BME280_humidity;BME280_pressure;Samples;Min_cycle;Max_cycle;Signal;HPM_P1;HPM_P2
2022/10/08 00:01:32;;;;;;;2.25;2.05;;;22.30;99.90;;;;;;5074274;28;20477;-92
2022/10/08 00:03:59;;;;;;;2.30;1.88;;;22.60;99.90;;;;;;5074646;28;20935;-89
2022/10/08 00:06:33;;;;;;;2.35;1.58;;;22.80;99.90;;;;;;5075607;28;20409;-92
2022/10/08 00:09:03;;;;;;;1.50;1.40;;;22.90;99.90;;;;;;5035959;28;20381;-90
2022/10/08 00:11:51;;;;;;;1.80;1.48;;;22.80;99.90;;;;;;5036149;28;20817;-88
2022/10/08 00:14:18;;;;;;;1.63;1.33;;;22.70;99.90;;;;;;5036370;28;20420;-89
2022/10/08 00:16:46;;;;;;;1.50;1.40;;;22.90;99.90;;;;;;5004590;28;20904;-89
2022/10/08 00:19:15;;;;;;;1.65;1.50;;;23.20;99.90;;;;;;5004723;28;20395;-90
2022/10/08 00:21:44;;;;;;;1.50;1.25;;;23.20;99.90;;;;;;5016907;28;20385;-88
2022/10/08 00:24:16;;;;;;;1.30;1.20;;;23.40;99.90;;;;;;5025687;28;20434;-88
2022/10/08 00:26:44;;;;;;;1.53;1.27;;;23.60;99.90;;;;;;5010760;28;20847;-88
2022/10/08 00:29:16;;;;;;;1.08;1.08;;;23.60;99.90;;;;;;4988309;28;20408;-88
2022/10/08 00:31:44;;;;;;;1.35;1.10;;;23.00;99.90;;;;;;5036783;28;20821;-91
2022/10/08 00:34:17;;;;;;;2.63;1.10;;;23.30;99.90;;;;;;5035909;28;20528;-87
2022/10/08 00:36:44;;;;;;;1.30;1.20;;;23.30;99.90;;;;;;5019411;28;20393;-92
2022/10/08 00:39:14;;;;;;;2.25;1.00;;;23.30;99.90;;;;;;5024463;28;20896;-88
2022/10/08 00:41:42;;;;;;;1.10;1.00;;;23.30;99.90;;;;;;5023426;28;20892;-88
2022/10/08 00:44:46;;;;;;;1.38;1.27;;;23.30;99.90;;;;;;5007611;28;20397;-93
2022/10/08 00:47:18;;;;;;;1.35;1.20;;;23.10;99.90;;;;;;4990947;28;20798;-88
2022/10/08 00:49:50;;;;;;;2.00;1.10;;;23.20;99.90;;;;;;5034009;28;20384;-89
2022/10/08 00:52:18;;;;;;;2.25;1.13;;;23.40;99.90;;;;;;5048659;28;20421;-90
2022/10/08 00:54:49;;;;;;;1.90;1.10;;;23.50;99.90;;;;;;5078644;28;20417;-89
2022/10/08 00:57:16;;;;;;;1.60;1.00;;;23.70;99.90;;;;;;5078173;28;20424;-90
2022/10/08 00:59:44;;;;;;;1.20;1.10;;;24.00;99.90;;;;;;5060838;28;20389;-94
2022/10/08 01:02:12;;;;;;;1.70;1.10;;;24.30;99.90;;;;;;5078681;28;20366;-88
2022/10/08 01:04:41;;;;;;;1.50;0.82;;;24.40;99.90;;;;;;5077818;28;20457;-89
2022/10/08 01:07:51;;;;;;;2.07;1.30;;;24.50;99.90;;;;;;5080246;28;20416;-89
2022/10/08 01:10:48;;;;;;;1.58;1.10;;;24.80;99.90;;;;;;5046424;28;20434;-89
2022/10/08 01:13:23;;;;;;;3.00;1.20;;;24.80;99.90;;;;;;5078003;28;20881;-89
2022/10/08 01:15:56;;;;;;;1.90;1.40;;;24.50;99.30;;;;;;5068918;28;20411;-88
2022/10/08 01:18:44;;;;;;;2.37;1.47;;;24.30;99.90;;;;;;5057847;28;20376;-88
2022/10/08 01:21:26;;;;;;;3.95;1.60;;;24.10;99.90;;;;;;5067809;28;20358;-91
2022/10/08 01:24:12;;;;;;;1.92;1.20;;;23.80;99.90;;;;;;5076867;28;20381;-91
2022/10/08 01:26:57;;;;;;;1.23;1.13;;;23.50;99.90;;;;;;5068038;28;20469;-87
2022/10/08 01:29:38;;;;;;;0.90;0.90;;;23.30;99.90;;;;;;5069899;28;20382;-88
2022/10/08 01:32:18;;;;;;;0.80;0.80;;;23.30;99.90;;;;;;5088101;28;20901;-92
2022/10/08 01:34:53;;;;;;;1.55;0.80;;;23.20;99.90;;;;;;5071659;28;20417;-89
2022/10/08 01:37:33;;;;;;;1.20;0.90;;;23.20;99.90;;;;;;5080384;28;20366;-90
2022/10/08 01:40:04;;;;;;;1.08;0.85;;;23.10;99.90;;;;;;5080768;28;20360;-92
2022/10/08 01:42:38;;;;;;;0.60;0.60;;;23.20;99.90;;;;;;5078979;28;20750;-88
2022/10/08 01:45:12;;;;;;;0.83;0.73;;;23.30;99.90;;;;;;5059361;28;20363;-90
2022/10/08 01:47:45;;;;;;;1.40;0.70;;;23.40;99.90;;;;;;5074492;28;20964;-92
2022/10/08 01:50:21;;;;;;;0.93;0.80;;;23.20;99.90;;;;;;5077857;28;20445;-89
2022/10/08 01:52:57;;;;;;;1.20;0.75;;;23.20;99.90;;;;;;5073299;28;20397;-91
2022/10/08 01:55:34;;;;;;;1.55;0.90;;;23.00;99.90;;;;;;5076137;28;20374;-88
2022/10/08 01:58:27;;;;;;;1.55;0.90;;;22.80;99.90;;;;;;5076707;28;20394;-92
2022/10/08 02:01:04;;;;;;;2.57;1.30;;;22.70;99.90;;;;;;5063482;28;20361;-88
2022/10/08 02:03:34;;;;;;;0.93;0.80;;;22.50;99.90;;;;;;5054909;28;20444;-94
2022/10/08 02:06:04;;;;;;;1.42;0.75;;;22.20;99.90;;;;;;5051581;28;20392;-88
2022/10/08 02:08:36;;;;;;;3.13;0.80;;;21.90;99.90;;;;;;5059564;28;20386;-89
2022/10/08 02:11:03;;;;;;;2.17;0.90;;;21.70;99.90;;;;;;5077427;28;20794;-88
2022/10/08 02:13:30;;;;;;;0.98;0.90;;;21.50;99.90;;;;;;5073516;28;20451;-91
2022/10/08 02:16:10;;;;;;;1.10;0.90;;;21.40;99.90;;;;;;5073462;28;20791;-89
2022/10/08 02:18:51;;;;;;;1.15;0.80;;;21.30;99.90;;;;;;5072704;28;20450;-89
2022/10/08 02:21:27;;;;;;;1.13;0.80;;;21.20;99.90;;;;;;5072120;28;20393;-90
2022/10/08 02:23:57;;;;;;;2.25;0.95;;;20.90;99.90;;;;;;5053371;28;20397;-89
2022/10/08 02:26:34;;;;;;;1.60;1.00;;;20.80;99.90;;;;;;5071868;28;20910;-89
2022/10/08 02:29:09;;;;;;;1.40;0.70;;;20.60;99.90;;;;;;5075368;28;20422;-91
2022/10/08 02:32:10;;;;;;;0.90;0.70;;;20.90;99.90;;;;;;5062314;28;20424;-88
2022/10/08 02:34:45;;;;;;;0.65;0.63;;;20.50;99.90;;;;;;5027161;28;20387;-89
2022/10/08 02:37:15;;;;;;;1.98;0.80;;;20.40;99.90;;;;;;5019254;28;20417;-90
2022/10/08 02:39:48;;;;;;;1.27;0.70;;;20.30;99.90;;;;;;5035018;28;20381;-92
2022/10/08 02:42:20;;;;;;;1.20;0.68;;;20.30;99.90;;;;;;5034180;28;20513;-90
2022/10/08 02:45:12;;;;;;;1.00;0.60;;;20.30;99.90;;;;;;5034578;28;20384;-90
2022/10/08 02:47:42;;;;;;;5.60;0.80;;;20.30;99.90;;;;;;5035074;28;20935;-89
2022/10/08 02:50:21;;;;;;;0.75;0.50;;;20.40;99.90;;;;;;5033531;28;20453;-90
2022/10/08 02:52:51;;;;;;;1.13;0.60;;;20.40;99.90;;;;;;5034010;28;20420;-90
2022/10/08 02:55:53;;;;;;;0.60;0.60;;;20.30;99.90;;;;;;5013391;28;20874;-90
2022/10/08 02:58:22;;;;;;;0.70;0.70;;;20.20;99.90;;;;;;4959501;28;20422;-91
2022/10/08 03:01:18;;;;;;;1.53;0.60;;;20.20;99.90;;;;;;4974893;28;20871;-91
2022/10/08 03:03:53;;;;;;;1.08;0.65;;;20.20;99.90;;;;;;4954809;28;20487;-90
2022/10/08 03:06:22;;;;;;;1.38;0.60;;;20.30;99.90;;;;;;4966681;28;20434;-91
2022/10/08 03:08:50;;;;;;;1.40;0.70;;;20.30;99.90;;;;;;4957603;28;20498;-90
2022/10/08 03:11:17;;;;;;;1.20;0.60;;;20.30;99.90;;;;;;4987962;28;20375;-91
2022/10/08 03:13:48;;;;;;;1.00;0.68;;;20.40;99.90;;;;;;5013849;28;20805;-94
2022/10/08 03:16:38;;;;;;;1.02;0.80;;;20.40;99.90;;;;;;5013838;28;20491;-89
2022/10/08 03:19:26;;;;;;;0.80;0.80;;;20.20;99.90;;;;;;5013656;28;20379;-90
2022/10/08 03:22:14;;;;;;;1.23;0.80;;;20.20;99.90;;;;;;4997241;28;20387;-92
2022/10/08 03:24:41;;;;;;;1.77;0.85;;;20.20;99.90;;;;;;4996564;28;20374;-92
2022/10/08 03:27:10;;;;;;;0.73;0.73;;;20.10;99.90;;;;;;4983001;28;20418;-93
2022/10/08 03:29:37;;;;;;;1.58;0.90;;;20.10;99.90;;;;;;4989088;28;20386;-89
2022/10/08 03:32:05;;;;;;;1.20;1.10;;;20.10;99.90;;;;;;5013518;28;20418;-89
2022/10/08 03:34:34;;;;;;;1.67;1.10;;;20.20;99.90;;;;;;5023539;28;20378;-90
2022/10/08 03:37:01;;;;;;;1.75;0.95;;;20.20;99.90;;;;;;5057019;28;20383;-88
2022/10/08 03:39:28;;;;;;;2.13;1.00;;;20.20;99.90;;;;;;5074660;28;20464;-89
2022/10/08 03:41:55;;;;;;;0.90;0.90;;;20.30;99.90;;;;;;5076594;28;20373;-90
2022/10/08 03:44:22;;;;;;;1.88;0.75;;;19.70;99.90;;;;;;5060913;28;20378;-90
2022/10/08 03:47:08;;;;;;;1.42;1.00;;;20.20;99.90;;;;;;5059908;28;20818;-90
2022/10/08 03:49:35;;;;;;;1.50;0.80;;;20.10;99.90;;;;;;5060325;28;20404;-89
2022/10/08 03:52:05;;;;;;;1.30;0.85;;;20.00;99.90;;;;;;5060588;28;20460;-89
2022/10/08 03:54:34;;;;;;;1.23;0.88;;;19.90;99.90;;;;;;5060429;28;20421;-88
2022/10/08 03:57:21;;;;;;;1.30;1.10;;;19.80;99.90;;;;;;5078279;28;20375;-90
2022/10/08 03:59:48;;;;;;;1.33;1.00;;;19.70;99.90;;;;;;5077926;28;20440;-91
2022/10/08 04:02:22;;;;;;;1.35;1.10;;;19.60;99.90;;;;;;5077576;28;20369;-91
2022/10/08 04:04:50;;;;;;;1.65;1.35;;;19.60;99.90;;;;;;5078351;28;20460;-91
2022/10/08 04:07:17;;;;;;;1.77;1.30;;;19.60;99.90;;;;;;5078611;28;20401;-91
2022/10/08 04:09:44;;;;;;;2.13;1.38;;;19.60;99.90;;;;;;5078786;28;20999;-92
2022/10/08 04:12:11;;;;;;;3.03;1.40;;;19.60;99.90;;;;;;5060950;28;20739;-91
2022/10/08 04:14:39;;;;;;;5.68;1.42;;;19.70;99.90;;;;;;5078167;28;20370;-87
2022/10/08 04:17:06;;;;;;;4.30;1.50;;;19.70;99.90;;;;;;5059610;28;20548;-87
2022/10/08 04:19:33;;;;;;;1.75;1.27;;;19.80;99.90;;;;;;5077704;28;20403;-86
2022/10/08 04:22:00;;;;;;;5.20;1.60;;;19.80;99.90;;;;;;5077423;28;20481;-89
2022/10/08 04:24:27;;;;;;;3.43;1.30;;;19.80;99.90;;;;;;5060109;28;20378;-88
2022/10/08 04:26:54;;;;;;;2.20;1.40;;;19.90;99.90;;;;;;5059178;28;20409;-86
2022/10/08 04:29:23;;;;;;;2.20;1.23;;;19.90;99.90;;;;;;5077124;28;20449;-86
2022/10/08 04:31:53;;;;;;;1.90;1.42;;;19.90;99.90;;;;;;5076987;28;20439;-86
2022/10/08 04:34:20;;;;;;;3.58;1.50;;;19.90;99.90;;;;;;5074985;28;20865;-87
2022/10/08 04:36:46;;;;;;;3.20;1.70;;;19.90;99.90;;;;;;5039752;28;20481;-87
2022/10/08 04:39:15;;;;;;;3.00;1.70;;;19.80;99.90;;;;;;5058181;28;20380;-88
2022/10/08 04:41:42;;;;;;;5.35;2.40;;;19.90;99.90;;;;;;5074354;28;20386;-89
2022/10/08 04:44:10;;;;;;;3.70;2.67;;;19.80;99.90;;;;;;5067292;28;20391;-87
2022/10/08 04:46:37;;;;;;;5.35;3.15;;;19.60;99.90;;;;;;5082591;28;20400;-86
2022/10/08 04:49:08;;;;;;;5.53;3.25;;;19.30;99.90;;;;;;5083767;28;20481;-87
2022/10/08 04:51:35;;;;;;;5.28;3.20;;;19.10;99.90;;;;;;5080756;28;20472;-87
2022/10/08 04:54:06;;;;;;;8.02;3.60;;;19.00;99.90;;;;;;5078608;28;20967;-88
2022/10/08 04:56:36;;;;;;;8.18;3.80;;;18.90;99.90;;;;;;5075269;28;20371;-88
2022/10/08 04:59:04;;;;;;;7.00;3.70;;;18.80;99.90;;;;;;5060856;28;20540;-88
2022/10/08 05:01:31;;;;;;;4.93;3.30;;;18.70;99.90;;;;;;5077566;28;20408;-88
2022/10/08 05:03:59;;;;;;;9.10;3.90;;;18.60;99.90;;;;;;5061047;28;20422;-88
2022/10/08 05:06:28;;;;;;;7.85;3.50;;;18.50;99.90;;;;;;5078734;28;20392;-86
2022/10/08 05:09:01;;;;;;;7.65;3.40;;;18.50;99.90;;;;;;5078873;28;20374;-87
2022/10/08 05:11:29;;;;;;;6.57;3.15;;;18.40;99.90;;;;;;5068609;28;20474;-88
2022/10/08 05:13:58;;;;;;;8.23;2.72;;;18.40;99.90;;;;;;5064977;28;20432;-82
2022/10/08 05:16:28;;;;;;;8.52;2.83;;;18.30;99.90;;;;;;5059975;28;20383;-88
2022/10/08 05:18:59;;;;;;;8.68;3.00;;;18.30;99.90;;;;;;5075932;28;20377;-87
2022/10/08 05:21:28;;;;;;;7.70;2.72;;;18.10;99.90;;;;;;5059091;28;20869;-88
2022/10/08 05:24:02;;;;;;;9.25;3.22;;;18.00;99.90;;;;;;5060176;28;20469;-86
2022/10/08 05:26:34;;;;;;;10.05;3.03;;;18.00;99.90;;;;;;5058963;28;20397;-86
2022/10/08 05:29:02;;;;;;;8.13;2.67;;;17.90;99.90;;;;;;5059046;28;20442;-88
2022/10/08 05:31:32;;;;;;;9.75;2.92;;;17.80;99.90;;;;;;5059794;28;20481;-89
2022/10/08 05:33:59;;;;;;;10.07;3.10;;;17.80;99.90;;;;;;5077924;28;20405;-87
2022/10/08 05:36:30;;;;;;;8.20;3.03;;;17.80;99.90;;;;;;5077624;28;20905;-86
2022/10/08 05:39:00;;;;;;;7.18;3.00;;;17.70;99.90;;;;;;5059140;28;20382;-86
2022/10/08 05:41:29;;;;;;;9.10;3.22;;;17.70;99.90;;;;;;5071547;28;20363;-87
2022/10/08 05:43:57;;;;;;;10.32;3.40;;;17.60;99.90;;;;;;5067392;28;20382;-87
2022/10/08 05:46:26;;;;;;;9.70;3.53;;;17.60;99.90;;;;;;5076538;28;20386;-89
2022/10/08 05:48:58;;;;;;;9.45;3.80;;;17.50;99.90;;;;;;5077112;28;20388;-87
2022/10/08 05:51:26;;;;;;;11.77;5.10;;;17.40;99.90;;;;;;5062341;28;21063;-87
2022/10/08 05:53:57;;;;;;;11.55;4.40;;;17.40;99.90;;;;;;5081845;28;20393;-87
2022/10/08 05:56:25;;;;;;;11.02;3.90;;;17.40;99.90;;;;;;5074550;28;20415;-87
2022/10/08 05:58:53;;;;;;;13.93;4.30;;;17.40;99.90;;;;;;5056461;28;20394;-89
2022/10/08 06:01:23;;;;;;;11.30;4.10;;;17.40;99.90;;;;;;5071576;28;20472;-88
2022/10/08 06:03:52;;;;;;;12.15;4.18;;;17.40;99.90;;;;;;5075705;28;20407;-89
2022/10/08 06:06:21;;;;;;;10.25;3.88;;;17.30;99.90;;;;;;5078537;28;20726;-87
2022/10/08 06:08:57;;;;;;;12.20;4.00;;;17.30;99.90;;;;;;5053485;28;20453;-88
2022/10/08 06:11:29;;;;;;;10.18;3.80;;;17.30;99.90;;;;;;5070155;28;20366;-88
2022/10/08 06:13:58;;;;;;;9.90;4.07;;;17.40;99.90;;;;;;5062429;28;20443;-87
2022/10/08 06:16:26;;;;;;;11.43;3.83;;;17.40;99.90;;;;;;5076228;28;20362;-88
2022/10/08 06:18:53;;;;;;;11.40;3.80;;;17.40;99.90;;;;;;5057107;28;20375;-87
2022/10/08 06:21:25;;;;;;;9.35;3.60;;;17.40;99.90;;;;;;5055894;28;20391;-89
2022/10/08 06:23:59;;;;;;;9.33;3.80;;;17.40;99.90;;;;;;5060032;28;20393;-88
2022/10/08 06:26:31;;;;;;;10.55;4.10;;;17.40;99.90;;;;;;5076823;28;20469;-87
2022/10/08 06:28:58;;;;;;;10.85;3.85;;;17.50;99.90;;;;;;5038947;28;20394;-87
2022/10/08 06:31:28;;;;;;;10.82;3.88;;;17.40;99.90;;;;;;5076075;28;20370;-89
2022/10/08 06:33:56;;;;;;;8.93;3.70;;;17.40;99.90;;;;;;5075162;28;20385;-86
2022/10/08 06:36:31;;;;;;;10.63;3.58;;;17.40;99.90;;;;;;5069552;28;20402;-88
2022/10/08 06:39:07;;;;;;;11.10;3.53;;;17.40;99.90;;;;;;5053138;28;20401;-88
2022/10/08 06:41:37;;;;;;;11.05;3.40;;;17.50;99.90;;;;;;5059314;28;20405;-87
2022/10/08 06:44:12;;;;;;;8.23;3.00;;;17.40;99.90;;;;;;5058549;28;20413;-87
2022/10/08 06:46:39;;;;;;;9.52;3.47;;;17.40;99.90;;;;;;5018866;28;20504;-88
2022/10/08 06:49:06;;;;;;;10.70;3.70;;;17.30;99.90;;;;;;5014784;28;20388;-87
2022/10/08 06:51:34;;;;;;;9.03;3.63;;;17.30;99.90;;;;;;5034260;28;20392;-86
2022/10/08 06:54:03;;;;;;;10.70;3.70;;;17.30;99.90;;;;;;5050879;28;20394;-86
2022/10/08 06:56:30;;;;;;;11.93;4.10;;;17.30;99.90;;;;;;5013703;28;20922;-89
2022/10/08 06:58:58;;;;;;;11.23;4.40;;;17.20;99.90;;;;;;5021564;28;20477;-87
2022/10/08 07:01:28;;;;;;;12.73;4.70;;;17.30;99.90;;;;;;5029619;28;20413;-87
2022/10/08 07:03:59;;;;;;;13.52;4.90;;;17.30;99.90;;;;;;5012745;28;20389;-88
2022/10/08 07:06:26;;;;;;;11.10;4.60;;;17.30;99.90;;;;;;5029649;28;20407;-86
2022/10/08 07:08:58;;;;;;;10.77;4.53;;;17.20;99.90;;;;;;5030023;28;20440;-87
2022/10/08 07:11:26;;;;;;;9.20;4.20;;;17.20;99.90;;;;;;5033807;28;20381;-87
2022/10/08 07:13:58;;;;;;;9.35;3.92;;;17.10;99.90;;;;;;5014740;28;20395;-86
2022/10/08 07:16:26;;;;;;;9.38;3.83;;;17.10;99.90;;;;;;5031754;28;20414;-86
2022/10/08 07:18:57;;;;;;;8.80;3.67;;;17.10;99.90;;;;;;5034113;28;20390;-85
2022/10/08 07:21:24;;;;;;;8.38;3.53;;;17.00;99.90;;;;;;5033826;28;20371;-85
2022/10/08 07:23:51;;;;;;;10.10;3.58;;;17.00;99.90;;;;;;5047722;28;20441;-85
2022/10/08 07:26:21;;;;;;;10.10;3.87;;;16.90;99.90;;;;;;5053814;28;20379;-87
2022/10/08 07:28:53;;;;;;;10.13;3.65;;;16.90;99.90;;;;;;5075077;28;20380;-87
2022/10/08 07:31:23;;;;;;;9.23;3.45;;;16.80;99.90;;;;;;5079309;28;20388;-85
2022/10/08 07:33:51;;;;;;;11.90;3.40;;;16.80;99.90;;;;;;5079088;28;20410;-86
2022/10/08 07:36:20;;;;;;;9.07;3.23;;;16.80;99.90;;;;;;5079244;28;20459;-87
2022/10/08 07:38:51;;;;;;;9.33;3.47;;;16.70;99.90;;;;;;5078973;28;20355;-86
2022/10/08 07:41:18;;;;;;;8.98;3.90;;;16.70;99.90;;;;;;5078995;28;20387;-87
2022/10/08 07:43:51;;;;;;;8.05;3.25;;;16.70;99.90;;;;;;5079162;28;20379;-87
2022/10/08 07:46:18;;;;;;;6.95;3.22;;;16.60;99.90;;;;;;5060689;28;20399;-87
2022/10/08 07:48:46;;;;;;;9.50;3.20;;;16.60;99.90;;;;;;5047869;28;20511;-88
2022/10/08 07:51:18;;;;;;;10.85;3.10;;;16.50;99.90;;;;;;5050352;28;20977;-87
2022/10/08 07:53:45;;;;;;;8.55;2.80;;;16.50;99.90;;;;;;5054629;28;20392;-87
2022/10/08 07:56:15;;;;;;;8.10;3.10;;;16.50;99.90;;;;;;5054363;28;20374;-88
2022/10/08 07:58:42;;;;;;;10.63;2.97;;;16.50;99.90;;;;;;5054733;28;20474;-88
2022/10/08 08:01:14;;;;;;;10.13;3.28;;;16.40;99.90;;;;;;5055428;28;20903;-89
2022/10/08 08:03:42;;;;;;;8.90;3.00;;;16.40;99.90;;;;;;5040931;28;20423;-88
2022/10/08 08:06:12;;;;;;;8.63;3.15;;;16.40;99.90;;;;;;5059351;28;20376;-90
2022/10/08 08:08:41;;;;;;;10.15;3.28;;;16.40;99.90;;;;;;5059536;28;20395;-88
2022/10/08 08:11:10;;;;;;;8.90;3.30;;;16.40;99.90;;;;;;5057545;28;20368;-89
2022/10/08 08:13:38;;;;;;;9.48;3.42;;;16.40;99.90;;;;;;5069209;28;20741;-88
2022/10/08 08:16:09;;;;;;;9.55;3.45;;;16.40;99.90;;;;;;5056211;28;20386;-89
2022/10/08 08:18:39;;;;;;;11.50;3.30;;;16.40;99.90;;;;;;5073960;28;21177;-88
2022/10/08 08:21:09;;;;;;;9.00;3.42;;;16.40;99.90;;;;;;5076523;28;20381;-89
2022/10/08 08:23:38;;;;;;;9.80;3.25;;;16.40;99.90;;;;;;5076325;28;20374;-89
2022/10/08 08:26:08;;;;;;;11.18;3.38;;;16.40;99.90;;;;;;5076396;28;20421;-89
2022/10/08 08:28:36;;;;;;;11.13;3.20;;;16.30;99.90;;;;;;5074889;28;20738;-87
2022/10/08 08:31:37;;;;;;;10.32;3.50;;;16.40;99.90;;;;;;5072588;28;20906;-88
2022/10/08 08:34:07;;;;;;;12.57;3.50;;;16.30;99.90;;;;;;4995247;28;20446;-88
2022/10/08 08:36:41;;;;;;;10.50;3.57;;;16.30;99.90;;;;;;4994782;28;20396;-89
2022/10/08 08:39:16;;;;;;;13.23;3.70;;;16.30;99.90;;;;;;4994453;28;20764;-87
2022/10/08 08:42:01;;;;;;;14.23;4.40;;;16.20;99.90;;;;;;4994526;28;20489;-88
2022/10/08 08:44:48;;;;;;;13.47;4.40;;;16.20;99.90;;;;;;4994433;28;20388;-87
2022/10/08 08:47:32;;;;;;;4.80;1.20;;;16.20;99.90;;;;;;4994190;28;20492;-87
2022/10/08 08:50:07;;;;;;;4.35;1.52;;;15.60;99.90;;;;;;4997708;28;20448;-84
2022/10/08 08:52:41;;;;;;;3.85;1.50;;;15.30;99.90;;;;;;5000081;28;20384;-87
2022/10/08 08:55:20;;;;;;;2.97;1.00;;;15.00;99.90;;;;;;4995150;28;20389;-86
2022/10/08 08:58:25;;;;;;;4.63;1.40;;;14.80;99.90;;;;;;4993296;28;20381;-87
2022/10/08 09:00:59;;;;;;;4.10;0.85;;;14.80;99.90;;;;;;4935841;29;20390;-87
2022/10/08 09:03:40;;;;;;;1.83;0.57;;;14.70;99.90;;;;;;4934628;29;20457;-87
2022/10/08 09:06:15;;;;;;;3.08;0.80;;;14.70;99.90;;;;;;4919589;29;20938;-87
2022/10/08 09:09:19;;;;;;;5.25;0.93;;;14.60;99.90;;;;;;4935183;29;20759;-84
2022/10/08 09:11:47;;;;;;;2.70;0.90;;;14.50;99.90;;;;;;4950282;29;20377;-86
2022/10/08 09:14:36;;;;;;;2.55;1.00;;;14.40;99.90;;;;;;4938116;29;20408;-85
2022/10/08 09:17:18;;;;;;;3.70;0.90;;;14.40;99.90;;;;;;4953970;29;20431;-87
2022/10/08 09:19:47;;;;;;;3.70;1.70;;;14.40;99.90;;;;;;4953877;29;20419;-87
2022/10/08 09:22:23;;;;;;;1.83;0.90;;;14.40;99.90;;;;;;4953401;29;20388;-87
2022/10/08 09:25:00;;;;;;;2.90;1.10;;;14.40;99.90;;;;;;4953508;29;20436;-87
2022/10/08 09:27:49;;;;;;;4.00;1.30;;;14.40;99.90;;;;;;4950963;29;20940;-87
2022/10/08 09:30:41;;;;;;;2.33;1.38;;;14.50;99.90;;;;;;4954025;29;20971;-86
2022/10/08 09:33:23;;;;;;;2.38;1.70;;;14.50;99.90;;;;;;4936118;29;20388;-87
2022/10/08 09:35:52;;;;;;;6.07;1.63;;;14.60;99.90;;;;;;4953951;29;20955;-86
2022/10/08 09:38:26;;;;;;;7.88;1.70;;;14.70;99.90;;;;;;4985240;28;21220;-85
2022/10/08 09:41:20;;;;;;;7.43;1.73;;;14.70;99.90;;;;;;4978498;28;20396;-87
2022/10/08 09:44:07;;;;;;;6.60;1.70;;;14.60;99.90;;;;;;5004873;28;20479;-87
2022/10/08 09:46:36;;;;;;;6.88;1.70;;;14.60;99.90;;;;;;4995078;28;20400;-86
2022/10/08 09:49:33;;;;;;;4.03;1.70;;;14.50;99.90;;;;;;5053253;28;20398;-87
2022/10/08 09:52:14;;;;;;;5.67;2.10;;;14.50;99.90;;;;;;4994761;28;20392;-87
2022/10/08 09:55:20;;;;;;;12.30;2.60;;;14.50;99.90;;;;;;4993703;28;20462;-87
2022/10/08 09:57:52;;;;;;;11.20;2.70;;;14.60;99.90;;;;;;4955766;29;20400;-86
2022/10/08 10:00:38;;;;;;;7.88;2.33;;;14.60;99.90;;;;;;4956277;29;20396;-87
2022/10/08 10:03:15;;;;;;;8.00;2.42;;;14.60;99.90;;;;;;4953405;29;20439;-88
2022/10/08 10:06:02;;;;;;;10.77;2.50;;;14.60;99.90;;;;;;4956313;29;20384;-88
2022/10/08 10:08:56;;;;;;;7.90;2.72;;;14.60;99.90;;;;;;4921826;29;20970;-87
2022/10/08 10:11:37;;;;;;;4.53;1.80;;;14.60;99.90;;;;;;4938496;29;20390;-87
2022/10/08 10:14:42;;;;;;;4.28;1.83;;;14.60;99.90;;;;;;4925229;29;20403;-89
2022/10/08 10:17:31;;;;;;;7.50;2.08;;;14.50;99.90;;;;;;4891759;29;20898;-89
2022/10/08 10:20:30;;;;;;;4.03;1.70;;;14.50;99.90;;;;;;4894487;29;20440;-87
2022/10/08 10:23:01;;;;;;;4.63;1.60;;;14.40;99.90;;;;;;4892817;29;20807;-89
2022/10/08 10:25:38;;;;;;;2.97;1.90;;;14.30;99.90;;;;;;4880772;29;20461;-87
2022/10/08 10:28:16;;;;;;;3.50;2.90;;;14.30;99.90;;;;;;4899586;29;20949;-88
2022/10/08 10:30:56;;;;;;;4.70;3.22;;;14.30;99.90;;;;;;4937507;28;20394;-89
2022/10/08 10:33:27;;;;;;;2.92;1.70;;;14.20;99.90;;;;;;4989583;28;21092;-88
2022/10/08 10:35:59;;;;;;;1.90;1.45;;;14.20;99.90;;;;;;4989772;28;20384;-88
2022/10/08 10:38:28;;;;;;;3.53;1.60;;;14.20;99.90;;;;;;4989005;28;20396;-88
2022/10/08 10:40:55;;;;;;;4.38;1.88;;;14.10;99.90;;;;;;4993023;28;20439;-90
2022/10/08 10:43:45;;;;;;;3.40;1.80;;;14.20;99.90;;;;;;4994953;28;20420;-89
2022/10/08 10:46:45;;;;;;;5.25;2.85;;;14.20;99.90;;;;;;4991975;28;20380;-88
2022/10/08 10:49:18;;;;;;;6.63;3.70;;;14.20;99.90;;;;;;4994183;28;20860;-88
2022/10/08 10:52:14;;;;;;;6.57;5.57;;;14.20;99.90;;;;;;4991462;28;20484;-88
2022/10/08 10:55:36;;;;;;;8.50;7.38;;;14.20;99.90;;;;;;4969577;28;20765;-90
2022/10/08 10:58:27;;;;;;;5.80;4.38;;;14.20;99.90;;;;;;4954141;29;20389;-88
2022/10/08 11:01:10;;;;;;;6.07;2.60;;;14.20;99.90;;;;;;4944904;29;20386;-88
2022/10/08 11:03:46;;;;;;;7.00;2.17;;;14.20;99.90;;;;;;4952070;29;20485;-86
2022/10/08 11:06:21;;;;;;;6.50;2.05;;;14.20;99.90;;;;;;4953580;29;20411;-87
2022/10/08 11:09:10;;;;;;;5.00;1.75;;;14.20;99.90;;;;;;4952396;29;20450;-88
2022/10/08 11:11:51;;;;;;;3.20;1.67;;;14.20;99.90;;;;;;4951009;29;20392;-87
2022/10/08 11:14:46;;;;;;;4.07;1.50;;;14.20;99.90;;;;;;4950715;29;20412;-89
2022/10/08 11:18:06;;;;;;;3.97;1.83;;;14.20;99.90;;;;;;4950234;29;20396;-87
2022/10/08 11:20:43;;;;;;;2.50;1.48;;;14.20;99.90;;;;;;4894109;29;20866;-90
2022/10/08 11:23:25;;;;;;;2.72;1.80;;;14.20;99.90;;;;;;4893570;29;20410;-90
2022/10/08 11:26:04;;;;;;;2.97;1.58;;;14.30;99.90;;;;;;4895745;29;20392;-87
2022/10/08 11:28:48;;;;;;;3.05;1.80;;;14.30;99.90;;;;;;4897769;29;20918;-91
2022/10/08 11:31:39;;;;;;;3.47;1.80;;;14.20;99.90;;;;;;4941591;28;20393;-88
2022/10/08 11:34:20;;;;;;;5.22;2.10;;;14.20;99.90;;;;;;4975350;28;20798;-89
2022/10/08 11:36:52;;;;;;;2.38;1.80;;;14.20;99.90;;;;;;4970654;28;20461;-88
2022/10/08 11:39:50;;;;;;;4.00;2.00;;;14.20;99.90;;;;;;4953992;28;20405;-87
2022/10/08 11:42:29;;;;;;;4.22;2.10;;;14.20;99.90;;;;;;4969681;28;20469;-87
2022/10/08 11:45:27;;;;;;;5.83;2.00;;;14.10;99.90;;;;;;4969545;28;20386;-87
2022/10/08 11:47:57;;;;;;;5.72;2.03;;;14.10;99.90;;;;;;4953509;28;20551;-90
2022/10/08 11:50:30;;;;;;;4.73;1.80;;;14.10;99.90;;;;;;4969513;28;20391;-87
2022/10/08 11:53:09;;;;;;;3.58;1.90;;;14.00;99.90;;;;;;4969621;28;20487;-90
2022/10/08 11:55:37;;;;;;;4.50;1.90;;;14.00;99.90;;;;;;5065075;28;20715;-91
2022/10/08 11:58:43;;;;;;;5.90;2.45;;;14.00;99.90;;;;;;5070643;28;20386;-87
2022/10/08 12:01:10;;;;;;;4.80;2.40;;;14.00;99.90;;;;;;5067715;28;20905;-87
2022/10/08 12:03:40;;;;;;;3.88;2.75;;;14.00;99.90;;;;;;5073074;28;20374;-91
2022/10/08 12:06:17;;;;;;;3.47;2.78;;;14.00;99.90;;;;;;5074262;28;20370;-91
2022/10/08 12:08:49;;;;;;;3.35;3.05;;;14.00;99.90;;;;;;5073851;28;20374;-87
2022/10/08 12:11:34;;;;;;;5.23;3.70;;;14.00;99.90;;;;;;5056042;28;20485;-88
2022/10/08 12:14:13;;;;;;;7.13;4.70;;;14.10;99.90;;;;;;5060762;28;20389;-91
2022/10/08 12:16:56;;;;;;;8.98;6.13;;;14.10;99.90;;;;;;5055416;28;20382;-88
2022/10/08 12:19:34;;;;;;;11.18;7.13;;;14.20;99.90;;;;;;5064865;28;20372;-86
2022/10/08 12:22:23;;;;;;;9.80;6.88;;;14.20;99.90;;;;;;5070231;28;20381;-90
2022/10/08 12:25:03;;;;;;;10.65;7.00;;;14.30;99.90;;;;;;5055423;28;20424;-86
2022/10/08 12:27:36;;;;;;;8.32;6.15;;;14.40;99.90;;;;;;5073950;28;20416;-89
2022/10/08 12:30:12;;;;;;;10.80;6.15;;;14.40;99.90;;;;;;5075167;28;20366;-87
2022/10/08 12:32:42;;;;;;;8.13;5.43;;;14.40;99.90;;;;;;5074795;28;20447;-89
2022/10/08 12:35:30;;;;;;;8.90;6.27;;;14.50;99.90;;;;;;5074622;28;20435;-90
2022/10/08 12:38:18;;;;;;;9.68;5.75;;;14.50;99.90;;;;;;5074482;28;20432;-90
2022/10/08 12:41:18;;;;;;;5.50;4.30;;;14.40;99.90;;;;;;5056522;28;20889;-87
2022/10/08 12:43:51;;;;;;;4.70;3.47;;;14.50;99.90;;;;;;5064067;28;21272;-87
2022/10/08 12:46:29;;;;;;;5.32;3.70;;;14.50;99.90;;;;;;5071101;28;20879;-91
2022/10/08 12:49:11;;;;;;;4.97;3.25;;;14.50;99.90;;;;;;5064426;28;20382;-86
2022/10/08 12:51:56;;;;;;;5.78;3.25;;;14.50;99.90;;;;;;5073790;28;20428;-90
2022/10/08 12:54:26;;;;;;;6.43;4.10;;;14.50;99.90;;;;;;5074177;28;20874;-88
2022/10/08 12:56:53;;;;;;;6.32;3.70;;;14.40;99.90;;;;;;5073407;28;20389;-91
2022/10/08 12:59:23;;;;;;;4.68;3.50;;;14.40;99.90;;;;;;5073882;28;20374;-90
2022/10/08 13:01:51;;;;;;;3.20;2.55;;;14.30;99.90;;;;;;5073769;28;20378;-90
2022/10/08 13:04:23;;;;;;;3.47;2.30;;;14.30;99.90;;;;;;5073837;28;20763;-90
2022/10/08 13:06:55;;;;;;;2.65;1.95;;;14.30;99.90;;;;;;5073940;28;20469;-93
2022/10/08 13:09:25;;;;;;;1.90;1.50;;;14.30;99.90;;;;;;5073616;28;20384;-88
2022/10/08 13:11:53;;;;;;;2.53;1.60;;;14.20;99.90;;;;;;5073485;28;20362;-91
2022/10/08 13:14:28;;;;;;;2.90;1.50;;;14.20;99.90;;;;;;5056044;28;20390;-89
2022/10/08 13:16:56;;;;;;;1.55;1.10;;;14.10;99.90;;;;;;5073629;28;20370;-88
2022/10/08 13:19:33;;;;;;;2.60;1.30;;;14.00;99.90;;;;;;5073575;28;20383;-86
2022/10/08 13:22:03;;;;;;;2.40;1.40;;;14.00;99.90;;;;;;5055555;28;20374;-90
2022/10/08 13:24:37;;;;;;;1.60;1.10;;;14.00;99.90;;;;;;5055721;28;20394;-90
2022/10/08 13:27:05;;;;;;;1.95;1.20;;;13.90;99.90;;;;;;5055804;28;20413;-90